sensor_id;sensor_type;location;lat;lon;timestamp;pressure;altitude;pressure_sealevel;temperature;humidity
70072;BME280;57434;42.794;23.302;2023-07-02T00:00:55;94914.28;;;16.54;nan
70072;BME280;57434;42.794;23.302;2023-07-02T00:01:57;94999.31;;;17.30;nan
70072;BME280;57434;42.794;23.302;2023-07-02T00:03:00;94982.53;;;17.32;nan
70072;BME280;57434;42.794;23.302;2023-07-02T00:04:02;94891.16;;;16.63;nan
70072;BME280;57434;42.794;23.302;2023-07-02T00:05:06;94782.28;;;15.88;nan
70072;BME280;57434;42.794;23.302;2023-07-02T00:06:08;94997.16;;;17.22;nan
70072;BME280;57434;42.794;23.302;2023-07-02T00:07:10;95010.59;;;17.22;nan
70072;BME280;57434;42.794;23.302;2023-07-02T00:08:12;95005.19;;;17.32;nan
70072;BME280;57434;42.794;23.302;2023-07-02T00:09:15;95004.91;;;17.22;nan
70072;BME280;57434;42.794;23.302;2023-07-02T00:10:17;94973.94;;;17.24;nan
70072;BME280;57434;42.794;23.302;2023-07-02T00:11:18;94977.31;;;17.22;nan
70072;BME280;57434;42.794;23.302;2023-07-02T00:12:20;95001.53;;;17.44;nan
70072;BME280;57434;42.794;23.302;2023-07-02T00:13:22;94952.56;;;17.23;nan
70072;BME280;57434;42.794;23.302;2023-07-02T00:14:24;95003.66;;;17.51;nan
70072;BME280;57434;42.794;23.302;2023-07-02T00:16:27;94999.66;;;17.26;nan
70072;BME280;57434;42.794;23.302;2023-07-02T00:17:29;94868.53;;;16.29;nan
70072;BME280;57434;42.794;23.302;2023-07-02T00:19:33;94972.69;;;17.12;nan
70072;BME280;57434;42.794;23.302;2023-07-02T00:20:35;94995.78;;;17.16;nan
70072;BME280;57434;42.794;23.302;2023-07-02T00:21:37;94901.31;;;16.72;nan
70072;BME280;57434;42.794;23.302;2023-07-02T00:22:38;94901.94;;;16.78;nan
70072;BME280;57434;42.794;23.302;2023-07-02T00:23:40;94984.97;;;17.35;nan
70072;BME280;57434;42.794;23.302;2023-07-02T00:25:44;94997.16;;;17.43;nan
70072;BME280;57434;42.794;23.302;2023-07-02T00:26:45;95025.84;;;17.40;nan
70072;BME280;57434;42.794;23.302;2023-07-02T00:27:47;95007.19;;;17.44;nan
70072;BME280;57434;42.794;23.302;2023-07-02T00:28:49;94999.56;;;17.39;nan
70072;BME280;57434;42.794;23.302;2023-07-02T00:29:51;94869.47;;;16.45;nan
70072;BME280;57434;42.794;23.302;2023-07-02T00:30:53;94994.53;;;17.04;nan
70072;BME280;57434;42.794;23.302;2023-07-02T00:32:57;94968.25;;;16.82;nan
70072;BME280;57434;42.794;23.302;2023-07-02T00:33:59;94945.22;;;16.65;nan
70072;BME280;57434;42.794;23.302;2023-07-02T00:36:03;95009.31;;;17.10;nan
70072;BME280;57434;42.794;23.302;2023-07-02T00:37:04;95020.22;;;17.06;nan
70072;BME280;57434;42.794;23.302;2023-07-02T00:38:06;95014.94;;;17.02;nan
70072;BME280;57434;42.794;23.302;2023-07-02T00:39:08;95001.56;;;16.89;nan
70072;BME280;57434;42.794;23.302;2023-07-02T00:40:10;94863.94;;;16.05;nan
70072;BME280;57434;42.794;23.302;2023-07-02T00:42:14;95020.72;;;16.97;nan
70072;BME280;57434;42.794;23.302;2023-07-02T00:43:16;94898.97;;;16.02;nan
70072;BME280;57434;42.794;23.302;2023-07-02T00:44:18;95049.59;;;16.95;nan
70072;BME280;57434;42.794;23.302;2023-07-02T00:50:29;95059.31;;;16.86;nan
70072;BME280;57434;42.794;23.302;2023-07-02T00:51:31;94986.06;;;16.56;nan
70072;BME280;57434;42.794;23.302;2023-07-02T00:52:33;95015.09;;;16.83;nan
70072;BME280;57434;42.794;23.302;2023-07-02T00:53:35;95004.59;;;16.91;nan
70072;BME280;57434;42.794;23.302;2023-07-02T00:56:40;95019.13;;;17.09;nan
70072;BME280;57434;42.794;23.302;2023-07-02T00:57:42;95016.38;;;17.16;nan
70072;BME280;57434;42.794;23.302;2023-07-02T00:59:49;94931.97;;;16.47;nan
70072;BME280;57434;42.794;23.302;2023-07-02T01:01:53;95024.53;;;17.20;nan
70072;BME280;57434;42.794;23.302;2023-07-02T01:02:55;95021.72;;;17.20;nan
70072;BME280;57434;42.794;23.302;2023-07-02T01:04:02;94935.63;;;16.55;nan
70072;BME280;57434;42.794;23.302;2023-07-02T01:05:04;95038.28;;;17.16;nan
70072;BME280;57434;42.794;23.302;2023-07-02T01:06:06;94896.97;;;16.23;nan
70072;BME280;57434;42.794;23.302;2023-07-02T01:08:09;95036.97;;;17.17;nan
70072;BME280;57434;42.794;23.302;2023-07-02T01:09:11;95012.97;;;16.97;nan
70072;BME280;57434;42.794;23.302;2023-07-02T01:10:13;94926.31;;;16.47;nan
70072;BME280;57434;42.794;23.302;2023-07-02T01:11:15;95032.84;;;17.18;nan
70072;BME280;57434;42.794;23.302;2023-07-02T01:12:18;95026.41;;;17.17;nan
70072;BME280;57434;42.794;23.302;2023-07-02T01:15:27;94870.03;;;16.09;nan
70072;BME280;57434;42.794;23.302;2023-07-02T01:16:30;95031.09;;;17.15;nan
70072;BME280;57434;42.794;23.302;2023-07-02T01:17:35;94938.00;;;16.64;nan
70072;BME280;57434;42.794;23.302;2023-07-02T01:18:37;94901.06;;;16.36;nan
70072;BME280;57434;42.794;23.302;2023-07-02T01:21:48;95011.81;;;17.13;nan
70072;BME280;57434;42.794;23.302;2023-07-02T01:23:53;94930.50;;;16.53;nan
70072;BME280;57434;42.794;23.302;2023-07-02T01:26:59;95028.69;;;17.19;nan
70072;BME280;57434;42.794;23.302;2023-07-02T01:29:19;95011.44;;;17.30;nan
70072;BME280;57434;42.794;23.302;2023-07-02T01:30:22;94992.06;;;17.21;nan
70072;BME280;57434;42.794;23.302;2023-07-02T01:31:23;95003.41;;;17.21;nan
70072;BME280;57434;42.794;23.302;2023-07-02T01:32:25;95006.03;;;17.19;nan
70072;BME280;57434;42.794;23.302;2023-07-02T01:33:27;94423.81;;;13.22;nan
70072;BME280;57434;42.794;23.302;2023-07-02T01:34:29;95007.19;;;17.23;nan
70072;BME280;57434;42.794;23.302;2023-07-02T01:37:26;94887.00;;;16.43;nan
70072;BME280;57434;42.794;23.302;2023-07-02T01:38:28;94898.81;;;16.68;nan
70072;BME280;57434;42.794;23.302;2023-07-02T01:39:30;94997.72;;;17.21;nan
70072;BME280;57434;42.794;23.302;2023-07-02T01:40:32;94959.69;;;16.96;nan
70072;BME280;57434;42.794;23.302;2023-07-02T01:41:49;94891.16;;;16.42;nan
70072;BME280;57434;42.794;23.302;2023-07-02T01:42:51;94959.19;;;16.84;nan
70072;BME280;57434;42.794;23.302;2023-07-02T01:43:53;95008.34;;;17.07;nan
70072;BME280;57434;42.794;23.302;2023-07-02T01:44:54;95011.25;;;17.15;nan
70072;BME280;57434;42.794;23.302;2023-07-02T01:45:56;95007.78;;;17.09;nan
70072;BME280;57434;42.794;23.302;2023-07-02T01:46:58;94987.13;;;17.01;nan
70072;BME280;57434;42.794;23.302;2023-07-02T01:49:02;95005.19;;;17.11;nan
70072;BME280;57434;42.794;23.302;2023-07-02T01:51:06;94983.69;;;16.95;nan
70072;BME280;57434;42.794;23.302;2023-07-02T01:53:09;94988.34;;;16.58;nan
70072;BME280;57434;42.794;23.302;2023-07-02T01:56:14;94984.06;;;16.78;nan
70072;BME280;57434;42.794;23.302;2023-07-02T01:57:16;94982.19;;;16.80;nan
70072;BME280;57434;42.794;23.302;2023-07-02T01:58:18;94976.81;;;16.69;nan
70072;BME280;57434;42.794;23.302;2023-07-02T02:03:15;94977.50;;;16.83;nan
70072;BME280;57434;42.794;23.302;2023-07-02T02:05:19;94939.88;;;16.62;nan
70072;BME280;57434;42.794;23.302;2023-07-02T02:06:21;94975.09;;;16.87;nan
70072;BME280;57434;42.794;23.302;2023-07-02T02:07:23;94970.53;;;16.84;nan
70072;BME280;57434;42.794;23.302;2023-07-02T02:09:27;94979.75;;;16.98;nan
70072;BME280;57434;42.794;23.302;2023-07-02T02:10:28;94953.59;;;16.91;nan
70072;BME280;57434;42.794;23.302;2023-07-02T02:11:31;94964.94;;;16.91;nan
70072;BME280;57434;42.794;23.302;2023-07-02T02:12:33;94935.97;;;16.85;nan
70072;BME280;57434;42.794;23.302;2023-07-02T02:13:35;94965.22;;;17.01;nan
70072;BME280;57434;42.794;23.302;2023-07-02T02:15:39;94966.66;;;16.95;nan
70072;BME280;57434;42.794;23.302;2023-07-02T02:18:44;94942.13;;;16.76;nan
70072;BME280;57434;42.794;23.302;2023-07-02T02:19:47;94978.13;;;16.89;nan
70072;BME280;57434;42.794;23.302;2023-07-02T02:20:49;94953.09;;;16.80;nan
70072;BME280;57434;42.794;23.302;2023-07-02T02:21:51;94945.31;;;16.59;nan
70072;BME280;57434;42.794;23.302;2023-07-02T02:22:53;94834.94;;;15.78;nan
70072;BME280;57434;42.794;23.302;2023-07-02T02:23:55;94948.81;;;16.18;nan
70072;BME280;57434;42.794;23.302;2023-07-02T02:27:00;94865.84;;;15.76;nan
70072;BME280;57434;42.794;23.302;2023-07-02T02:30:07;94961.31;;;16.70;nan
70072;BME280;57434;42.794;23.302;2023-07-02T02:31:09;94933.44;;;16.61;nan
70072;BME280;57434;42.794;23.302;2023-07-02T02:32:11;94915.75;;;16.47;nan
70072;BME280;57434;42.794;23.302;2023-07-02T02:35:16;94863.22;;;16.25;nan
70072;BME280;57434;42.794;23.302;2023-07-02T02:36:18;94942.91;;;16.77;nan
70072;BME280;57434;42.794;23.302;2023-07-02T02:37:20;94926.25;;;16.73;nan
70072;BME280;57434;42.794;23.302;2023-07-02T02:38:22;94932.13;;;16.75;nan
70072;BME280;57434;42.794;23.302;2023-07-02T02:39:24;94861.66;;;16.38;nan
70072;BME280;57434;42.794;23.302;2023-07-02T02:40:26;94915.66;;;16.74;nan
70072;BME280;57434;42.794;23.302;2023-07-02T02:41:28;94903.91;;;16.90;nan
70072;BME280;57434;42.794;23.302;2023-07-02T02:42:30;94845.56;;;16.33;nan
70072;BME280;57434;42.794;23.302;2023-07-02T02:43:32;94936.19;;;16.87;nan
70072;BME280;57434;42.794;23.302;2023-07-02T02:44:33;94946.63;;;16.92;nan
70072;BME280;57434;42.794;23.302;2023-07-02T02:45:35;94945.66;;;16.90;nan
70072;BME280;57434;42.794;23.302;2023-07-02T02:46:37;94941.22;;;16.81;nan
70072;BME280;57434;42.794;23.302;2023-07-02T02:47:40;94935.34;;;16.79;nan
70072;BME280;57434;42.794;23.302;2023-07-02T02:48:41;94899.16;;;16.51;nan
70072;BME280;57434;42.794;23.302;2023-07-02T02:50:45;94942.91;;;16.77;nan
70072;BME280;57434;42.794;23.302;2023-07-02T02:51:47;94915.34;;;16.64;nan
70072;BME280;57434;42.794;23.302;2023-07-02T02:53:51;94944.88;;;16.69;nan
70072;BME280;57434;42.794;23.302;2023-07-02T02:56:56;94850.47;;;15.98;nan
70072;BME280;57434;42.794;23.302;2023-07-02T03:00:01;94953.09;;;16.46;nan
70072;BME280;57434;42.794;23.302;2023-07-02T03:01:03;94956.75;;;16.54;nan
70072;BME280;57434;42.794;23.302;2023-07-02T03:02:05;94970.47;;;16.63;nan
70072;BME280;57434;42.794;23.302;2023-07-02T03:03:07;94977.13;;;16.66;nan
70072;BME280;57434;42.794;23.302;2023-07-02T03:04:10;94981.19;;;16.44;nan
70072;BME280;57434;42.794;23.302;2023-07-02T03:07:16;94873.25;;;15.53;nan
70072;BME280;57434;42.794;23.302;2023-07-02T03:08:18;94991.00;;;16.30;nan
70072;BME280;57434;42.794;23.302;2023-07-02T03:09:20;94991.34;;;16.26;nan
70072;BME280;57434;42.794;23.302;2023-07-02T03:10:21;94895.69;;;15.64;nan
70072;BME280;57434;42.794;23.302;2023-07-02T03:11:23;94958.19;;;16.13;nan
70072;BME280;57434;42.794;23.302;2023-07-02T03:12:25;94928.56;;;16.01;nan
70072;BME280;57434;42.794;23.302;2023-07-02T03:13:28;95009.41;;;16.49;nan
70072;BME280;57434;42.794;23.302;2023-07-02T03:14:30;94941.34;;;16.42;nan
70072;BME280;57434;42.794;23.302;2023-07-02T03:15:32;94951.53;;;16.58;nan
70072;BME280;57434;42.794;23.302;2023-07-02T03:16:33;94951.66;;;16.52;nan
70072;BME280;57434;42.794;23.302;2023-07-02T03:17:36;94938.09;;;16.24;nan
70072;BME280;57434;42.794;23.302;2023-07-02T03:18:38;94981.97;;;16.44;nan
70072;BME280;57434;42.794;23.302;2023-07-02T03:19:40;94942.34;;;16.31;nan
70072;BME280;57434;42.794;23.302;2023-07-02T03:21:44;94961.00;;;16.13;nan
70072;BME280;57434;42.794;23.302;2023-07-02T03:23:48;95020.59;;;16.55;nan
70072;BME280;57434;42.794;23.302;2023-07-02T03:24:50;94996.28;;;16.59;nan
70072;BME280;57434;42.794;23.302;2023-07-02T03:26:54;94999.78;;;16.66;nan
70072;BME280;57434;42.794;23.302;2023-07-02T03:27:56;94927.06;;;16.00;nan
70072;BME280;57434;42.794;23.302;2023-07-02T03:28:58;94890.53;;;15.89;nan
70072;BME280;57434;42.794;23.302;2023-07-02T03:30:00;94815.09;;;15.31;nan
70072;BME280;57434;42.794;23.302;2023-07-02T03:31:01;95008.94;;;16.72;nan
70072;BME280;57434;42.794;23.302;2023-07-02T03:33:05;94874.22;;;15.95;nan
70072;BME280;57434;42.794;23.302;2023-07-02T03:35:10;94975.69;;;16.72;nan
70072;BME280;57434;42.794;23.302;2023-07-02T03:36:12;94915.06;;;16.20;nan
70072;BME280;57434;42.794;23.302;2023-07-02T03:37:14;94964.91;;;16.71;nan
70072;BME280;57434;42.794;23.302;2023-07-02T03:38:16;94888.63;;;16.18;nan
70072;BME280;57434;42.794;23.302;2023-07-02T03:39:18;94984.13;;;16.85;nan
70072;BME280;57434;42.794;23.302;2023-07-02T03:41:21;94996.78;;;16.84;nan
70072;BME280;57434;42.794;23.302;2023-07-02T03:42:23;94986.69;;;16.76;nan
70072;BME280;57434;42.794;23.302;2023-07-02T03:43:25;94931.34;;;16.75;nan
70072;BME280;57434;42.794;23.302;2023-07-02T03:44:27;94867.34;;;16.24;nan
70072;BME280;57434;42.794;23.302;2023-07-02T03:46:31;94991.88;;;17.06;nan
70072;BME280;57434;42.794;23.302;2023-07-02T03:47:33;94994.47;;;17.17;nan
70072;BME280;57434;42.794;23.302;2023-07-02T03:48:35;94869.69;;;16.47;nan
70072;BME280;57434;42.794;23.302;2023-07-02T03:49:37;94992.72;;;17.14;nan
70072;BME280;57434;42.794;23.302;2023-07-02T03:50:39;94974.41;;;17.15;nan
70072;BME280;57434;42.794;23.302;2023-07-02T03:51:41;94930.94;;;16.91;nan
70072;BME280;57434;42.794;23.302;2023-07-02T03:52:42;94933.00;;;16.91;nan
70072;BME280;57434;42.794;23.302;2023-07-02T03:54:46;94936.91;;;17.01;nan
70072;BME280;57434;42.794;23.302;2023-07-02T03:55:48;94986.81;;;17.25;nan
70072;BME280;57434;42.794;23.302;2023-07-02T03:56:50;94989.56;;;17.38;nan
70072;BME280;57434;42.794;23.302;2023-07-02T03:58:54;94954.53;;;17.28;nan
70072;BME280;57434;42.794;23.302;2023-07-02T03:59:56;94999.66;;;17.47;nan
70072;BME280;57434;42.794;23.302;2023-07-02T04:04:03;95005.19;;;17.52;nan
70072;BME280;57434;42.794;23.302;2023-07-02T04:05:05;94842.53;;;16.31;nan
70072;BME280;57434;42.794;23.302;2023-07-02T04:06:07;94853.81;;;16.44;nan
70072;BME280;57434;42.794;23.302;2023-07-02T04:07:09;94713.63;;;15.67;nan
70072;BME280;57434;42.794;23.302;2023-07-02T04:08:11;94984.28;;;17.42;nan
70072;BME280;57434;42.794;23.302;2023-07-02T04:10:15;94901.34;;;16.79;nan
70072;BME280;57434;42.794;23.302;2023-07-02T04:11:16;94974.78;;;17.32;nan
70072;BME280;57434;42.794;23.302;2023-07-02T04:12:18;95002.91;;;17.51;nan
70072;BME280;57434;42.794;23.302;2023-07-02T04:13:20;94906.75;;;16.90;nan
70072;BME280;57434;42.794;23.302;2023-07-02T04:14:23;94986.31;;;17.55;nan
70072;BME280;57434;42.794;23.302;2023-07-02T04:15:25;94886.25;;;16.77;nan
70072;BME280;57434;42.794;23.302;2023-07-02T04:16:27;94907.66;;;16.85;nan
70072;BME280;57434;42.794;23.302;2023-07-02T04:20:34;95022.47;;;17.62;nan
70072;BME280;57434;42.794;23.302;2023-07-02T04:22:37;95014.25;;;17.51;nan
70072;BME280;57434;42.794;23.302;2023-07-02T04:24:43;94926.38;;;16.88;nan
70072;BME280;57434;42.794;23.302;2023-07-02T04:25:48;95022.06;;;17.58;nan
70072;BME280;57434;42.794;23.302;2023-07-02T04:29:24;95027.75;;;17.58;nan
70072;BME280;57434;42.794;23.302;2023-07-02T04:30:25;94952.50;;;16.95;nan
70072;BME280;57434;42.794;23.302;2023-07-02T04:32:29;94767.41;;;15.75;nan
70072;BME280;57434;42.794;23.302;2023-07-02T04:34:33;94949.88;;;17.17;nan
70072;BME280;57434;42.794;23.302;2023-07-02T04:35:35;94975.13;;;17.29;nan
70072;BME280;57434;42.794;23.302;2023-07-02T04:37:39;95032.66;;;17.78;nan
70072;BME280;57434;42.794;23.302;2023-07-02T04:38:41;95071.00;;;17.72;nan
70072;BME280;57434;42.794;23.302;2023-07-02T04:39:43;95040.97;;;17.76;nan
70072;BME280;57434;42.794;23.302;2023-07-02T04:40:45;95030.31;;;17.69;nan
70072;BME280;57434;42.794;23.302;2023-07-02T04:42:48;94960.41;;;17.30;nan
70072;BME280;57434;42.794;23.302;2023-07-02T04:43:50;95036.47;;;17.81;nan
70072;BME280;57434;42.794;23.302;2023-07-02T04:44:55;94876.56;;;16.93;nan
70072;BME280;57434;42.794;23.302;2023-07-02T04:45:57;94980.47;;;17.81;nan
70072;BME280;57434;42.794;23.302;2023-07-02T04:48:05;95051.91;;;18.01;nan
70072;BME280;57434;42.794;23.302;2023-07-02T04:49:07;95041.88;;;18.00;nan
70072;BME280;57434;42.794;23.302;2023-07-02T04:50:10;95064.19;;;17.96;nan
70072;BME280;57434;42.794;23.302;2023-07-02T04:51:12;95043.69;;;17.89;nan
70072;BME280;57434;42.794;23.302;2023-07-02T04:52:14;95047.91;;;17.96;nan
70072;BME280;57434;42.794;23.302;2023-07-02T04:53:16;95062.56;;;18.08;nan
70072;BME280;57434;42.794;23.302;2023-07-02T04:54:19;95058.06;;;18.12;nan
70072;BME280;57434;42.794;23.302;2023-07-02T04:57:24;95062.50;;;18.00;nan
70072;BME280;57434;42.794;23.302;2023-07-02T04:59:28;95056.28;;;18.02;nan
70072;BME280;57434;42.794;23.302;2023-07-02T05:01:32;95051.09;;;17.92;nan
70072;BME280;57434;42.794;23.302;2023-07-02T05:02:34;95023.28;;;17.91;nan
70072;BME280;57434;42.794;23.302;2023-07-02T05:04:39;95061.47;;;17.90;nan
70072;BME280;57434;42.794;23.302;2023-07-02T05:07:44;94953.06;;;17.14;nan
70072;BME280;57434;42.794;23.302;2023-07-02T05:08:46;94999.25;;;17.22;nan
70072;BME280;57434;42.794;23.302;2023-07-02T05:10:50;95044.28;;;17.67;nan
70072;BME280;57434;42.794;23.302;2023-07-02T05:11:53;95060.88;;;17.63;nan
70072;BME280;57434;42.794;23.302;2023-07-02T05:13:56;94816.38;;;16.04;nan
70072;BME280;57434;42.794;23.302;2023-07-02T05:14:58;95068.69;;;17.91;nan
70072;BME280;57434;42.794;23.302;2023-07-02T05:18:05;95071.59;;;17.99;nan
70072;BME280;57434;42.794;23.302;2023-07-02T05:19:07;95020.53;;;17.78;nan
70072;BME280;57434;42.794;23.302;2023-07-02T05:20:09;95064.88;;;18.17;nan
70072;BME280;57434;42.794;23.302;2023-07-02T05:22:13;95054.00;;;18.00;nan
70072;BME280;57434;42.794;23.302;2023-07-02T05:23:16;95069.09;;;18.23;nan
70072;BME280;57434;42.794;23.302;2023-07-02T05:24:18;95065.50;;;18.23;nan
70072;BME280;57434;42.794;23.302;2023-07-02T05:25:20;95071.03;;;18.28;nan
70072;BME280;57434;42.794;23.302;2023-07-02T05:26:22;95019.41;;;18.38;nan
70072;BME280;57434;42.794;23.302;2023-07-02T05:28:25;95023.78;;;18.46;nan
70072;BME280;57434;42.794;23.302;2023-07-02T05:29:27;95043.03;;;18.61;nan
70072;BME280;57434;42.794;23.302;2023-07-02T05:30:29;94635.06;;;15.73;nan
70072;BME280;57434;42.794;23.302;2023-07-02T05:32:34;95012.91;;;18.58;nan
70072;BME280;57434;42.794;23.302;2023-07-02T05:33:36;94909.56;;;17.89;nan
70072;BME280;57434;42.794;23.302;2023-07-02T05:37:43;95037.31;;;18.53;nan
70072;BME280;57434;42.794;23.302;2023-07-02T05:38:45;95058.78;;;18.70;nan
70072;BME280;57434;42.794;23.302;2023-07-02T05:39:47;95059.75;;;18.72;nan
70072;BME280;57434;42.794;23.302;2023-07-02T05:42:53;95025.88;;;18.46;nan
70072;BME280;57434;42.794;23.302;2023-07-02T05:43:59;95056.22;;;18.87;nan
70072;BME280;57434;42.794;23.302;2023-07-02T05:45:01;95071.63;;;19.07;nan
70072;BME280;57434;42.794;23.302;2023-07-02T05:46:03;93791.97;;;10.46;nan
70072;BME280;57434;42.794;23.302;2023-07-02T05:47:06;95075.63;;;19.11;nan
70072;BME280;57434;42.794;23.302;2023-07-02T05:49:10;95043.50;;;18.80;nan
70072;BME280;57434;42.794;23.302;2023-07-02T05:51:20;95093.00;;;19.00;nan
70072;BME280;57434;42.794;23.302;2023-07-02T05:52:22;95076.16;;;18.94;nan
70072;BME280;57434;42.794;23.302;2023-07-02T05:53:23;95093.63;;;19.06;nan
70072;BME280;57434;42.794;23.302;2023-07-02T05:54:25;95108.75;;;18.93;nan
70072;BME280;57434;42.794;23.302;2023-07-02T05:57:31;95076.03;;;18.72;nan
70072;BME280;57434;42.794;23.302;2023-07-02T05:58:33;95051.34;;;18.59;nan
70072;BME280;57434;42.794;23.302;2023-07-02T05:59:48;95080.16;;;18.63;nan
70072;BME280;57434;42.794;23.302;2023-07-02T06:00:50;95073.31;;;18.30;nan
70072;BME280;57434;42.794;23.302;2023-07-02T06:01:52;94986.38;;;17.91;nan
70072;BME280;57434;42.794;23.302;2023-07-02T06:02:54;95064.25;;;18.60;nan
70072;BME280;57434;42.794;23.302;2023-07-02T06:03:56;95057.66;;;18.37;nan
70072;BME280;57434;42.794;23.302;2023-07-02T06:06:01;95070.31;;;18.64;nan
70072;BME280;57434;42.794;23.302;2023-07-02T06:08:04;95075.94;;;18.92;nan
70072;BME280;57434;42.794;23.302;2023-07-02T06:09:06;95054.34;;;18.97;nan
70072;BME280;57434;42.794;23.302;2023-07-02T06:10:08;95070.84;;;18.99;nan
70072;BME280;57434;42.794;23.302;2023-07-02T06:11:10;95091.06;;;18.51;nan
70072;BME280;57434;42.794;23.302;2023-07-02T06:12:12;95049.78;;;18.50;nan
70072;BME280;57434;42.794;23.302;2023-07-02T06:13:14;95068.06;;;18.70;nan
70072;BME280;57434;42.794;23.302;2023-07-02T06:14:17;95064.09;;;18.66;nan
70072;BME280;57434;42.794;23.302;2023-07-02T06:15:19;95078.25;;;18.58;nan
70072;BME280;57434;42.794;23.302;2023-07-02T06:17:22;94825.28;;;17.04;nan
70072;BME280;57434;42.794;23.302;2023-07-02T06:18:24;94939.13;;;17.65;nan
70072;BME280;57434;42.794;23.302;2023-07-02T06:21:30;95070.03;;;18.83;nan
70072;BME280;57434;42.794;23.302;2023-07-02T06:24:42;95003.25;;;18.61;nan
70072;BME280;57434;42.794;23.302;2023-07-02T06:25:44;94776.63;;;17.21;nan
70072;BME280;57434;42.794;23.302;2023-07-02T06:26:46;95030.69;;;19.10;nan
70072;BME280;57434;42.794;23.302;2023-07-02T06:27:48;95001.03;;;18.67;nan
70072;BME280;57434;42.794;23.302;2023-07-02T06:28:50;94931.78;;;18.42;nan
70072;BME280;57434;42.794;23.302;2023-07-02T06:32:57;95064.03;;;19.02;nan
70072;BME280;57434;42.794;23.302;2023-07-02T06:36:03;95034.66;;;19.07;nan
70072;BME280;57434;42.794;23.302;2023-07-02T06:37:05;95070.00;;;19.34;nan
70072;BME280;57434;42.794;23.302;2023-07-02T06:38:07;95062.09;;;19.40;nan
70072;BME280;57434;42.794;23.302;2023-07-02T06:39:09;95032.69;;;19.45;nan
70072;BME280;57434;42.794;23.302;2023-07-02T06:41:13;94994.19;;;19.82;nan
70072;BME280;57434;42.794;23.302;2023-07-02T06:42:16;94809.31;;;18.53;nan
70072;BME280;57434;42.794;23.302;2023-07-02T06:43:18;95042.97;;;20.24;nan
70072;BME280;57434;42.794;23.302;2023-07-02T06:44:19;94986.03;;;19.94;nan
70072;BME280;57434;42.794;23.302;2023-07-02T06:45:21;95051.28;;;20.45;nan
70072;BME280;57434;42.794;23.302;2023-07-02T06:47:25;95053.19;;;20.90;nan
70072;BME280;57434;42.794;23.302;2023-07-02T06:48:27;94975.19;;;20.71;nan
70072;BME280;57434;42.794;23.302;2023-07-02T06:49:29;95023.28;;;21.14;nan
70072;BME280;57434;42.794;23.302;2023-07-02T06:53:36;95063.41;;;21.49;nan
70072;BME280;57434;42.794;23.302;2023-07-02T06:57:44;95030.84;;;20.72;nan
70072;BME280;57434;42.794;23.302;2023-07-02T06:58:46;95075.41;;;21.00;nan
70072;BME280;57434;42.794;23.302;2023-07-02T06:59:49;94765.53;;;19.17;nan
70072;BME280;57434;42.794;23.302;2023-07-02T07:01:53;95030.19;;;21.04;nan
70072;BME280;57434;42.794;23.302;2023-07-02T07:02:55;95012.69;;;20.52;nan
70072;BME280;57434;42.794;23.302;2023-07-02T07:03:57;95043.31;;;21.39;nan
70072;BME280;57434;42.794;23.302;2023-07-02T07:06:01;95041.72;;;21.46;nan
70072;BME280;57434;42.794;23.302;2023-07-02T07:09:06;95033.31;;;21.80;nan
70072;BME280;57434;42.794;23.302;2023-07-02T07:10:08;95050.97;;;21.61;nan
70072;BME280;57434;42.794;23.302;2023-07-02T07:11:10;94946.75;;;21.28;nan
70072;BME280;57434;42.794;23.302;2023-07-02T07:12:12;95032.38;;;22.03;nan
70072;BME280;57434;42.794;23.302;2023-07-02T07:13:14;95049.91;;;21.99;nan
70072;BME280;57434;42.794;23.302;2023-07-02T07:14:16;95024.47;;;21.93;nan
70072;BME280;57434;42.794;23.302;2023-07-02T07:16:20;95047.50;;;22.38;nan
70072;BME280;57434;42.794;23.302;2023-07-02T07:17:22;95018.91;;;22.38;nan
70072;BME280;57434;42.794;23.302;2023-07-02T07:18:24;95051.78;;;22.46;nan
70072;BME280;57434;42.794;23.302;2023-07-02T07:19:27;95034.16;;;22.75;nan
70072;BME280;57434;42.794;23.302;2023-07-02T07:21:32;95029.97;;;22.76;nan
70072;BME280;57434;42.794;23.302;2023-07-02T07:23:36;95032.06;;;23.19;nan
70072;BME280;57434;42.794;23.302;2023-07-02T07:24:39;95005.13;;;23.22;nan
70072;BME280;57434;42.794;23.302;2023-07-02T07:25:41;95037.72;;;23.27;nan
70072;BME280;57434;42.794;23.302;2023-07-02T07:27:45;95004.91;;;23.28;nan
70072;BME280;57434;42.794;23.302;2023-07-02T07:28:48;95029.69;;;22.99;nan
70072;BME280;57434;42.794;23.302;2023-07-02T07:29:50;95040.97;;;22.79;nan
70072;BME280;57434;42.794;23.302;2023-07-02T07:30:52;94982.25;;;22.44;nan
70072;BME280;57434;42.794;23.302;2023-07-02T07:32:57;94642.84;;;20.50;nan
70072;BME280;57434;42.794;23.302;2023-07-02T07:33:59;95041.09;;;23.33;nan
70072;BME280;57434;42.794;23.302;2023-07-02T07:36:03;95031.31;;;23.19;nan
70072;BME280;57434;42.794;23.302;2023-07-02T07:37:05;95021.31;;;23.10;nan
70072;BME280;57434;42.794;23.302;2023-07-02T07:38:07;94968.22;;;22.73;nan
70072;BME280;57434;42.794;23.302;2023-07-02T07:40:12;95021.63;;;22.87;nan
70072;BME280;57434;42.794;23.302;2023-07-02T07:41:14;94994.19;;;22.15;nan
70072;BME280;57434;42.794;23.302;2023-07-02T07:42:16;94864.88;;;21.38;nan
70072;BME280;57434;42.794;23.302;2023-07-02T07:44:19;95012.69;;;22.83;nan
70072;BME280;57434;42.794;23.302;2023-07-02T07:45:21;95027.56;;;23.43;nan
70072;BME280;57434;42.794;23.302;2023-07-02T07:46:23;95004.38;;;23.22;nan
70072;BME280;57434;42.794;23.302;2023-07-02T07:49:29;95026.28;;;23.27;nan
70072;BME280;57434;42.794;23.302;2023-07-02T07:50:32;95032.09;;;23.73;nan
70072;BME280;57434;42.794;23.302;2023-07-02T07:51:34;95028.69;;;23.84;nan
70072;BME280;57434;42.794;23.302;2023-07-02T07:53:41;94951.09;;;23.63;nan
70072;BME280;57434;42.794;23.302;2023-07-02T07:54:43;95020.09;;;23.94;nan
70072;BME280;57434;42.794;23.302;2023-07-02T07:55:45;95032.97;;;23.66;nan